sensor_id;sensor_type;location;lat;lon;timestamp;P1;durP1;ratioP1;P2;durP2;ratioP2
52686;SDS011;38584;49.426;8.396;2023-07-22T00:00:58;7.93;;;3.07;;
52686;SDS011;38584;49.426;8.396;2023-07-22T00:03:27;11.82;;;3.00;;
52686;SDS011;38584;49.426;8.396;2023-07-22T00:08:30;7.32;;;2.58;;
52686;SDS011;38584;49.426;8.396;2023-07-22T00:10:55;16.70;;;3.05;;
52686;SDS011;38584;49.426;8.396;2023-07-22T00:13:21;8.98;;;3.28;;
52686;SDS011;38584;49.426;8.396;2023-07-22T00:15:46;8.57;;;3.27;;
52686;SDS011;38584;49.426;8.396;2023-07-22T00:18:14;10.50;;;3.43;;
52686;SDS011;38584;49.426;8.396;2023-07-22T00:20:39;8.98;;;2.53;;
52686;SDS011;38584;49.426;8.396;2023-07-22T00:23:07;8.70;;;2.87;;
52686;SDS011;38584;49.426;8.396;2023-07-22T00:25:32;9.93;;;3.00;;
52686;SDS011;38584;49.426;8.396;2023-07-22T00:28:00;8.80;;;2.90;;
52686;SDS011;38584;49.426;8.396;2023-07-22T00:30:26;10.05;;;3.00;;
52686;SDS011;38584;49.426;8.396;2023-07-22T00:32:53;10.23;;;3.00;;
52686;SDS011;38584;49.426;8.396;2023-07-22T00:35:18;11.13;;;3.20;;
52686;SDS011;38584;49.426;8.396;2023-07-22T00:37:43;10.73;;;2.97;;
52686;SDS011;38584;49.426;8.396;2023-07-22T00:40:11;8.73;;;3.03;;
52686;SDS011;38584;49.426;8.396;2023-07-22T00:42:37;9.20;;;3.20;;
52686;SDS011;38584;49.426;8.396;2023-07-22T00:45:02;8.13;;;2.88;;
52686;SDS011;38584;49.426;8.396;2023-07-22T00:47:28;12.40;;;3.25;;
52686;SDS011;38584;49.426;8.396;2023-07-22T00:49:53;11.30;;;3.30;;
52686;SDS011;38584;49.426;8.396;2023-07-22T00:52:19;10.23;;;3.28;;
52686;SDS011;38584;49.426;8.396;2023-07-22T00:54:44;9.67;;;3.30;;
52686;SDS011;38584;49.426;8.396;2023-07-22T00:57:09;8.73;;;3.22;;
52686;SDS011;38584;49.426;8.396;2023-07-22T00:59:49;7.70;;;2.90;;
52686;SDS011;38584;49.426;8.396;2023-07-22T01:02:14;7.10;;;3.08;;
52686;SDS011;38584;49.426;8.396;2023-07-22T01:04:39;13.47;;;3.17;;
52686;SDS011;38584;49.426;8.396;2023-07-22T01:07:05;7.65;;;3.17;;
52686;SDS011;38584;49.426;8.396;2023-07-22T01:09:37;11.77;;;3.20;;
52686;SDS011;38584;49.426;8.396;2023-07-22T01:12:03;12.57;;;3.40;;
52686;SDS011;38584;49.426;8.396;2023-07-22T01:14:28;7.32;;;3.03;;
52686;SDS011;38584;49.426;8.396;2023-07-22T01:16:57;10.25;;;2.97;;
52686;SDS011;38584;49.426;8.396;2023-07-22T01:19:22;10.50;;;3.00;;
52686;SDS011;38584;49.426;8.396;2023-07-22T01:21:47;9.65;;;3.08;;
52686;SDS011;38584;49.426;8.396;2023-07-22T01:24:12;10.80;;;3.15;;
52686;SDS011;38584;49.426;8.396;2023-07-22T01:26:38;10.63;;;3.28;;
52686;SDS011;38584;49.426;8.396;2023-07-22T01:29:06;10.38;;;3.15;;
52686;SDS011;38584;49.426;8.396;2023-07-22T01:31:33;10.05;;;2.95;;
52686;SDS011;38584;49.426;8.396;2023-07-22T01:34:02;10.10;;;3.20;;
52686;SDS011;38584;49.426;8.396;2023-07-22T01:36:29;9.07;;;3.00;;
52686;SDS011;38584;49.426;8.396;2023-07-22T01:38:57;7.68;;;2.80;;
52686;SDS011;38584;49.426;8.396;2023-07-22T01:41:22;13.00;;;3.20;;
52686;SDS011;38584;49.426;8.396;2023-07-22T01:43:48;8.50;;;3.00;;
52686;SDS011;38584;49.426;8.396;2023-07-22T01:46:17;10.00;;;3.05;;
52686;SDS011;38584;49.426;8.396;2023-07-22T01:48:45;11.00;;;3.10;;
52686;SDS011;38584;49.426;8.396;2023-07-22T01:51:11;10.15;;;3.17;;
52686;SDS011;38584;49.426;8.396;2023-07-22T01:53:42;9.07;;;3.10;;
52686;SDS011;38584;49.426;8.396;2023-07-22T01:56:07;8.60;;;3.20;;
52686;SDS011;38584;49.426;8.396;2023-07-22T01:58:32;10.73;;;3.30;;
52686;SDS011;38584;49.426;8.396;2023-07-22T02:01:01;9.00;;;2.90;;
52686;SDS011;38584;49.426;8.396;2023-07-22T02:03:27;8.85;;;3.42;;
52686;SDS011;38584;49.426;8.396;2023-07-22T02:05:52;9.05;;;3.20;;
52686;SDS011;38584;49.426;8.396;2023-07-22T02:08:17;7.53;;;3.10;;
52686;SDS011;38584;49.426;8.396;2023-07-22T02:10:43;7.93;;;3.13;;
52686;SDS011;38584;49.426;8.396;2023-07-22T02:13:11;12.63;;;3.33;;
52686;SDS011;38584;49.426;8.396;2023-07-22T02:15:43;11.18;;;3.13;;
52686;SDS011;38584;49.426;8.396;2023-07-22T02:18:09;7.82;;;3.20;;
52686;SDS011;38584;49.426;8.396;2023-07-22T02:20:34;9.87;;;3.30;;
52686;SDS011;38584;49.426;8.396;2023-07-22T02:23:08;9.85;;;2.90;;
52686;SDS011;38584;49.426;8.396;2023-07-22T02:25:34;11.48;;;3.42;;
52686;SDS011;38584;49.426;8.396;2023-07-22T02:28:00;13.57;;;4.60;;
52686;SDS011;38584;49.426;8.396;2023-07-22T02:30:26;14.80;;;4.57;;
52686;SDS011;38584;49.426;8.396;2023-07-22T02:32:51;11.77;;;4.03;;
52686;SDS011;38584;49.426;8.396;2023-07-22T02:35:16;10.70;;;4.85;;
52686;SDS011;38584;49.426;8.396;2023-07-22T02:37:42;11.57;;;4.30;;
52686;SDS011;38584;49.426;8.396;2023-07-22T02:40:07;13.68;;;4.85;;
52686;SDS011;38584;49.426;8.396;2023-07-22T02:42:42;12.55;;;4.80;;
52686;SDS011;38584;49.426;8.396;2023-07-22T02:45:07;12.57;;;4.93;;
52686;SDS011;38584;49.426;8.396;2023-07-22T02:47:33;10.70;;;4.60;;
52686;SDS011;38584;49.426;8.396;2023-07-22T02:49:59;11.98;;;4.88;;
52686;SDS011;38584;49.426;8.396;2023-07-22T02:52:24;13.17;;;4.97;;
52686;SDS011;38584;49.426;8.396;2023-07-22T02:55:08;12.27;;;5.23;;
52686;SDS011;38584;49.426;8.396;2023-07-22T02:57:35;11.75;;;5.55;;
52686;SDS011;38584;49.426;8.396;2023-07-22T03:00:01;14.77;;;6.10;;
52686;SDS011;38584;49.426;8.396;2023-07-22T03:02:31;11.82;;;5.40;;
52686;SDS011;38584;49.426;8.396;2023-07-22T03:04:57;13.03;;;5.30;;
52686;SDS011;38584;49.426;8.396;2023-07-22T03:07:22;11.90;;;5.25;;
52686;SDS011;38584;49.426;8.396;2023-07-22T03:09:50;10.37;;;4.80;;
52686;SDS011;38584;49.426;8.396;2023-07-22T03:12:16;11.05;;;5.10;;
52686;SDS011;38584;49.426;8.396;2023-07-22T03:14:41;11.65;;;5.05;;
52686;SDS011;38584;49.426;8.396;2023-07-22T03:17:07;12.25;;;5.22;;
52686;SDS011;38584;49.426;8.396;2023-07-22T03:19:32;11.98;;;4.93;;
52686;SDS011;38584;49.426;8.396;2023-07-22T03:21:58;11.00;;;5.60;;
52686;SDS011;38584;49.426;8.396;2023-07-22T03:24:23;15.13;;;6.13;;
52686;SDS011;38584;49.426;8.396;2023-07-22T03:26:50;12.05;;;5.90;;
52686;SDS011;38584;49.426;8.396;2023-07-22T03:29:18;12.20;;;6.03;;
52686;SDS011;38584;49.426;8.396;2023-07-22T03:31:43;11.10;;;5.32;;
52686;SDS011;38584;49.426;8.396;2023-07-22T03:34:08;15.87;;;6.37;;
52686;SDS011;38584;49.426;8.396;2023-07-22T03:36:36;14.30;;;6.90;;
52686;SDS011;38584;49.426;8.396;2023-07-22T03:39:01;13.35;;;6.05;;
52686;SDS011;38584;49.426;8.396;2023-07-22T03:41:28;11.85;;;5.72;;
52686;SDS011;38584;49.426;8.396;2023-07-22T03:43:56;11.50;;;5.60;;
52686;SDS011;38584;49.426;8.396;2023-07-22T03:46:21;13.30;;;5.88;;
52686;SDS011;38584;49.426;8.396;2023-07-22T03:48:46;16.17;;;6.23;;
52686;SDS011;38584;49.426;8.396;2023-07-22T03:51:11;17.50;;;6.87;;
52686;SDS011;38584;49.426;8.396;2023-07-22T03:53:36;17.27;;;7.43;;
52686;SDS011;38584;49.426;8.396;2023-07-22T03:56:05;13.63;;;6.23;;
52686;SDS011;38584;49.426;8.396;2023-07-22T03:58:30;13.27;;;6.95;;
52686;SDS011;38584;49.426;8.396;2023-07-22T04:00:55;12.57;;;7.07;;
52686;SDS011;38584;49.426;8.396;2023-07-22T04:03:20;12.83;;;6.03;;
52686;SDS011;38584;49.426;8.396;2023-07-22T04:05:55;12.53;;;6.20;;
52686;SDS011;38584;49.426;8.396;2023-07-22T04:08:20;14.98;;;6.45;;
52686;SDS011;38584;49.426;8.396;2023-07-22T04:10:55;17.53;;;6.70;;
52686;SDS011;38584;49.426;8.396;2023-07-22T04:13:20;13.55;;;6.15;;
52686;SDS011;38584;49.426;8.396;2023-07-22T04:15:46;15.95;;;6.80;;
52686;SDS011;38584;49.426;8.396;2023-07-22T04:18:11;14.25;;;6.32;;
52686;SDS011;38584;49.426;8.396;2023-07-22T04:20:36;14.73;;;6.13;;
52686;SDS011;38584;49.426;8.396;2023-07-22T04:23:01;14.77;;;5.80;;
52686;SDS011;38584;49.426;8.396;2023-07-22T04:25:27;12.13;;;6.40;;
52686;SDS011;38584;49.426;8.396;2023-07-22T04:27:52;13.10;;;6.07;;
52686;SDS011;38584;49.426;8.396;2023-07-22T04:30:17;14.10;;;6.43;;
52686;SDS011;38584;49.426;8.396;2023-07-22T04:32:47;38.78;;;6.65;;
52686;SDS011;38584;49.426;8.396;2023-07-22T04:35:12;12.93;;;6.05;;
52686;SDS011;38584;49.426;8.396;2023-07-22T04:37:37;11.65;;;6.60;;
52686;SDS011;38584;49.426;8.396;2023-07-22T04:40:02;12.98;;;6.60;;
52686;SDS011;38584;49.426;8.396;2023-07-22T04:42:31;14.57;;;7.22;;
52686;SDS011;38584;49.426;8.396;2023-07-22T04:44:56;13.60;;;7.00;;
52686;SDS011;38584;49.426;8.396;2023-07-22T04:47:21;15.23;;;6.63;;
52686;SDS011;38584;49.426;8.396;2023-07-22T04:49:46;11.90;;;6.60;;
52686;SDS011;38584;49.426;8.396;2023-07-22T04:52:14;14.00;;;6.85;;
52686;SDS011;38584;49.426;8.396;2023-07-22T04:54:41;13.38;;;6.68;;
52686;SDS011;38584;49.426;8.396;2023-07-22T04:57:09;11.77;;;6.43;;
52686;SDS011;38584;49.426;8.396;2023-07-22T04:59:37;13.57;;;6.55;;
52686;SDS011;38584;49.426;8.396;2023-07-22T05:02:02;12.40;;;6.70;;
52686;SDS011;38584;49.426;8.396;2023-07-22T05:04:30;13.02;;;6.85;;
52686;SDS011;38584;49.426;8.396;2023-07-22T05:06:55;13.07;;;6.07;;
52686;SDS011;38584;49.426;8.396;2023-07-22T05:09:24;14.23;;;6.63;;
52686;SDS011;38584;49.426;8.396;2023-07-22T05:11:49;13.00;;;6.47;;
52686;SDS011;38584;49.426;8.396;2023-07-22T05:14:14;12.43;;;6.03;;
52686;SDS011;38584;49.426;8.396;2023-07-22T05:16:39;12.60;;;6.60;;
52686;SDS011;38584;49.426;8.396;2023-07-22T05:19:05;14.87;;;6.53;;
52686;SDS011;38584;49.426;8.396;2023-07-22T05:21:30;20.02;;;7.28;;
52686;SDS011;38584;49.426;8.396;2023-07-22T05:23:55;12.75;;;6.68;;
52686;SDS011;38584;49.426;8.396;2023-07-22T05:26:20;10.43;;;5.67;;
52686;SDS011;38584;49.426;8.396;2023-07-22T05:28:45;13.73;;;6.47;;
52686;SDS011;38584;49.426;8.396;2023-07-22T05:31:11;12.25;;;6.10;;
52686;SDS011;38584;49.426;8.396;2023-07-22T05:33:36;13.32;;;6.38;;
52686;SDS011;38584;49.426;8.396;2023-07-22T05:36:05;16.00;;;6.43;;
52686;SDS011;38584;49.426;8.396;2023-07-22T05:38:30;12.90;;;6.18;;
52686;SDS011;38584;49.426;8.396;2023-07-22T05:40:56;16.48;;;6.38;;
52686;SDS011;38584;49.426;8.396;2023-07-22T05:43:21;12.50;;;6.27;;
52686;SDS011;38584;49.426;8.396;2023-07-22T05:45:46;14.30;;;6.25;;
52686;SDS011;38584;49.426;8.396;2023-07-22T05:48:12;13.63;;;6.15;;
52686;SDS011;38584;49.426;8.396;2023-07-22T05:50:37;16.15;;;6.45;;
52686;SDS011;38584;49.426;8.396;2023-07-22T05:53:02;18.27;;;6.30;;
52686;SDS011;38584;49.426;8.396;2023-07-22T05:55:27;21.83;;;6.40;;
52686;SDS011;38584;49.426;8.396;2023-07-22T05:57:52;17.70;;;6.43;;
52686;SDS011;38584;49.426;8.396;2023-07-22T06:00:18;15.33;;;5.97;;
52686;SDS011;38584;49.426;8.396;2023-07-22T06:02:44;14.80;;;5.88;;
52686;SDS011;38584;49.426;8.396;2023-07-22T06:05:09;14.05;;;5.38;;
52686;SDS011;38584;49.426;8.396;2023-07-22T06:07:34;13.43;;;5.40;;
52686;SDS011;38584;49.426;8.396;2023-07-22T06:09:59;16.40;;;5.30;;
52686;SDS011;38584;49.426;8.396;2023-07-22T06:12:25;11.80;;;5.03;;
52686;SDS011;38584;49.426;8.396;2023-07-22T06:14:50;11.60;;;4.87;;
52686;SDS011;38584;49.426;8.396;2023-07-22T06:17:21;11.45;;;4.75;;
52686;SDS011;38584;49.426;8.396;2023-07-22T06:19:46;13.23;;;4.80;;
52686;SDS011;38584;49.426;8.396;2023-07-22T06:22:11;11.03;;;4.87;;
52686;SDS011;38584;49.426;8.396;2023-07-22T06:24:36;11.77;;;4.67;;
52686;SDS011;38584;49.426;8.396;2023-07-22T06:27:02;15.20;;;5.07;;
52686;SDS011;38584;49.426;8.396;2023-07-22T06:29:27;12.05;;;4.90;;
52686;SDS011;38584;49.426;8.396;2023-07-22T06:31:55;9.88;;;4.60;;
52686;SDS011;38584;49.426;8.396;2023-07-22T06:34:20;12.18;;;4.97;;
52686;SDS011;38584;49.426;8.396;2023-07-22T06:36:48;11.60;;;4.70;;
52686;SDS011;38584;49.426;8.396;2023-07-22T06:39:16;10.93;;;4.57;;
52686;SDS011;38584;49.426;8.396;2023-07-22T06:41:41;15.90;;;5.20;;
52686;SDS011;38584;49.426;8.396;2023-07-22T06:44:06;13.00;;;4.72;;
52686;SDS011;38584;49.426;8.396;2023-07-22T06:46:32;11.67;;;4.43;;
52686;SDS011;38584;49.426;8.396;2023-07-22T06:48:57;12.32;;;4.60;;
52686;SDS011;38584;49.426;8.396;2023-07-22T06:51:25;10.85;;;4.45;;
52686;SDS011;38584;49.426;8.396;2023-07-22T06:53:50;11.35;;;4.13;;
52686;SDS011;38584;49.426;8.396;2023-07-22T06:56:15;13.80;;;4.30;;
52686;SDS011;38584;49.426;8.396;2023-07-22T06:58:41;10.80;;;4.03;;
52686;SDS011;38584;49.426;8.396;2023-07-22T07:01:06;14.73;;;4.60;;
52686;SDS011;38584;49.426;8.396;2023-07-22T07:03:31;11.47;;;4.10;;
52686;SDS011;38584;49.426;8.396;2023-07-22T07:05:56;12.73;;;4.30;;
52686;SDS011;38584;49.426;8.396;2023-07-22T07:08:22;10.25;;;3.92;;
52686;SDS011;38584;49.426;8.396;2023-07-22T07:10:47;10.43;;;4.40;;
52686;SDS011;38584;49.426;8.396;2023-07-22T07:13:15;10.80;;;4.20;;
52686;SDS011;38584;49.426;8.396;2023-07-22T07:15:40;9.73;;;3.97;;
52686;SDS011;38584;49.426;8.396;2023-07-22T07:18:05;11.87;;;3.80;;
52686;SDS011;38584;49.426;8.396;2023-07-22T07:20:31;12.30;;;4.43;;
52686;SDS011;38584;49.426;8.396;2023-07-22T07:23:02;12.23;;;4.20;;
52686;SDS011;38584;49.426;8.396;2023-07-22T07:25:27;10.25;;;4.40;;
52686;SDS011;38584;49.426;8.396;2023-07-22T07:27:56;11.13;;;4.25;;
52686;SDS011;38584;49.426;8.396;2023-07-22T07:30:24;11.30;;;3.97;;
52686;SDS011;38584;49.426;8.396;2023-07-22T07:32:49;11.85;;;4.30;;
52686;SDS011;38584;49.426;8.396;2023-07-22T07:35:14;10.20;;;4.10;;
52686;SDS011;38584;49.426;8.396;2023-07-22T07:37:39;12.60;;;4.17;;
52686;SDS011;38584;49.426;8.396;2023-07-22T07:40:04;11.33;;;4.20;;
52686;SDS011;38584;49.426;8.396;2023-07-22T07:42:30;11.93;;;4.03;;
52686;SDS011;38584;49.426;8.396;2023-07-22T07:44:58;12.53;;;3.67;;
52686;SDS011;38584;49.426;8.396;2023-07-22T07:47:26;8.85;;;3.78;;
52686;SDS011;38584;49.426;8.396;2023-07-22T07:49:54;10.10;;;3.65;;
52686;SDS011;38584;49.426;8.396;2023-07-22T07:52:19;10.38;;;3.85;;
52686;SDS011;38584;49.426;8.396;2023-07-22T07:54:44;8.13;;;3.57;;
52686;SDS011;38584;49.426;8.396;2023-07-22T07:57:09;8.90;;;3.25;;
52686;SDS011;38584;49.426;8.396;2023-07-22T07:59:34;10.77;;;3.63;;
52686;SDS011;38584;49.426;8.396;2023-07-22T08:02:03;10.95;;;4.07;;
52686;SDS011;38584;49.426;8.396;2023-07-22T08:04:33;11.02;;;3.70;;
52686;SDS011;38584;49.426;8.396;2023-07-22T08:06:58;9.57;;;3.53;;
52686;SDS011;38584;49.426;8.396;2023-07-22T08:09:24;9.37;;;3.60;;
52686;SDS011;38584;49.426;8.396;2023-07-22T08:11:49;12.17;;;3.40;;
52686;SDS011;38584;49.426;8.396;2023-07-22T08:14:14;7.80;;;2.97;;
52686;SDS011;38584;49.426;8.396;2023-07-22T08:16:39;11.27;;;3.80;;
52686;SDS011;38584;49.426;8.396;2023-07-22T08:19:04;8.05;;;3.47;;
52686;SDS011;38584;49.426;8.396;2023-07-22T08:21:30;10.27;;;3.37;;
52686;SDS011;38584;49.426;8.396;2023-07-22T08:23:55;8.00;;;3.10;;
52686;SDS011;38584;49.426;8.396;2023-07-22T08:26:20;10.10;;;3.30;;
52686;SDS011;38584;49.426;8.396;2023-07-22T08:28:47;8.75;;;2.97;;
52686;SDS011;38584;49.426;8.396;2023-07-22T08:31:12;9.60;;;3.10;;
52686;SDS011;38584;49.426;8.396;2023-07-22T08:33:37;8.13;;;2.80;;
52686;SDS011;38584;49.426;8.396;2023-07-22T08:36:03;9.32;;;3.03;;
52686;SDS011;38584;49.426;8.396;2023-07-22T08:38:28;7.30;;;2.95;;
52686;SDS011;38584;49.426;8.396;2023-07-22T08:40:56;13.83;;;3.20;;
52686;SDS011;38584;49.426;8.396;2023-07-22T08:43:22;7.40;;;3.00;;
52686;SDS011;38584;49.426;8.396;2023-07-22T08:45:48;7.15;;;3.03;;
52686;SDS011;38584;49.426;8.396;2023-07-22T08:48:14;9.60;;;3.08;;
52686;SDS011;38584;49.426;8.396;2023-07-22T08:50:58;11.20;;;3.00;;
52686;SDS011;38584;49.426;8.396;2023-07-22T08:53:27;7.95;;;3.00;;
52686;SDS011;38584;49.426;8.396;2023-07-22T08:55:55;10.00;;;3.17;;
52686;SDS011;38584;49.426;8.396;2023-07-22T08:58:21;13.10;;;3.40;;
52686;SDS011;38584;49.426;8.396;2023-07-22T09:00:50;11.15;;;2.90;;
52686;SDS011;38584;49.426;8.396;2023-07-22T09:03:16;8.27;;;2.85;;
52686;SDS011;38584;49.426;8.396;2023-07-22T09:05:41;7.53;;;2.70;;
52686;SDS011;38584;49.426;8.396;2023-07-22T09:08:10;9.38;;;2.80;;
52686;SDS011;38584;49.426;8.396;2023-07-22T09:10:35;8.07;;;2.80;;
52686;SDS011;38584;49.426;8.396;2023-07-22T09:13:02;8.13;;;2.80;;
52686;SDS011;38584;49.426;8.396;2023-07-22T09:15:27;11.32;;;3.00;;
52686;SDS011;38584;49.426;8.396;2023-07-22T09:17:53;9.18;;;3.08;;
52686;SDS011;38584;49.426;8.396;2023-07-22T09:20:20;8.53;;;3.00;;
52686;SDS011;38584;49.426;8.396;2023-07-22T09:22:46;8.77;;;3.08;;
52686;SDS011;38584;49.426;8.396;2023-07-22T09:25:12;11.13;;;3.10;;
52686;SDS011;38584;49.426;8.396;2023-07-22T09:27:41;8.32;;;2.85;;
52686;SDS011;38584;49.426;8.396;2023-07-22T09:30:25;7.40;;;2.80;;
52686;SDS011;38584;49.426;8.396;2023-07-22T09:32:51;11.20;;;2.85;;
52686;SDS011;38584;49.426;8.396;2023-07-22T09:35:17;10.55;;;2.72;;
52686;SDS011;38584;49.426;8.396;2023-07-22T09:37:43;7.85;;;2.78;;
52686;SDS011;38584;49.426;8.396;2023-07-22T09:40:22;7.67;;;2.60;;
52686;SDS011;38584;49.426;8.396;2023-07-22T09:42:48;7.88;;;2.70;;
52686;SDS011;38584;49.426;8.396;2023-07-22T09:45:17;8.20;;;2.60;;
52686;SDS011;38584;49.426;8.396;2023-07-22T09:47:43;12.05;;;3.25;;
52686;SDS011;38584;49.426;8.396;2023-07-22T09:50:10;10.23;;;2.90;;
52686;SDS011;38584;49.426;8.396;2023-07-22T09:52:47;5.32;;;2.40;;
52686;SDS011;38584;49.426;8.396;2023-07-22T09:55:20;9.75;;;2.58;;
52686;SDS011;38584;49.426;8.396;2023-07-22T09:57:47;13.43;;;2.60;;
52686;SDS011;38584;49.426;8.396;2023-07-22T10:00:13;6.57;;;2.50;;
52686;SDS011;38584;49.426;8.396;2023-07-22T10:02:39;7.88;;;2.70;;
52686;SDS011;38584;49.426;8.396;2023-07-22T10:05:05;11.48;;;2.45;;
52686;SDS011;38584;49.426;8.396;2023-07-22T10:07:32;7.40;;;2.53;;
52686;SDS011;38584;49.426;8.396;2023-07-22T10:09:58;10.85;;;2.70;;
52686;SDS011;38584;49.426;8.396;2023-07-22T10:12:24;6.90;;;2.65;;
52686;SDS011;38584;49.426;8.396;2023-07-22T10:14:53;8.50;;;2.50;;
52686;SDS011;38584;49.426;8.396;2023-07-22T10:17:18;10.38;;;2.70;;
52686;SDS011;38584;49.426;8.396;2023-07-22T10:19:44;9.30;;;2.38;;
52686;SDS011;38584;49.426;8.396;2023-07-22T10:22:09;13.32;;;2.80;;
52686;SDS011;38584;49.426;8.396;2023-07-22T10:24:39;9.90;;;2.78;;
52686;SDS011;38584;49.426;8.396;2023-07-22T10:27:04;7.88;;;2.60;;
52686;SDS011;38584;49.426;8.396;2023-07-22T10:29:30;9.85;;;2.88;;
52686;SDS011;38584;49.426;8.396;2023-07-22T10:31:56;8.65;;;2.45;;
52686;SDS011;38584;49.426;8.396;2023-07-22T10:34:21;8.53;;;2.60;;
52686;SDS011;38584;49.426;8.396;2023-07-22T10:36:47;13.00;;;3.47;;
52686;SDS011;38584;49.426;8.396;2023-07-22T10:39:30;8.40;;;2.50;;
52686;SDS011;38584;49.426;8.396;2023-07-22T10:42:02;11.80;;;2.95;;
52686;SDS011;38584;49.426;8.396;2023-07-22T10:44:30;6.90;;;2.30;;
52686;SDS011;38584;49.426;8.396;2023-07-22T10:46:58;12.00;;;2.85;;
52686;SDS011;38584;49.426;8.396;2023-07-22T10:49:24;16.95;;;3.13;;
52686;SDS011;38584;49.426;8.396;2023-07-22T10:51:51;11.73;;;3.17;;
52686;SDS011;38584;49.426;8.396;2023-07-22T10:54:30;11.07;;;2.83;;
52686;SDS011;38584;49.426;8.396;2023-07-22T10:56:57;7.38;;;2.55;;
52686;SDS011;38584;49.426;8.396;2023-07-22T10:59:27;9.98;;;2.70;;
52686;SDS011;38584;49.426;8.396;2023-07-22T11:01:53;12.82;;;2.60;;
52686;SDS011;38584;49.426;8.396;2023-07-22T11:04:25;9.88;;;2.67;;
52686;SDS011;38584;49.426;8.396;2023-07-22T11:07:03;11.35;;;2.70;;
52686;SDS011;38584;49.426;8.396;2023-07-22T11:11:55;7.57;;;2.55;;
52686;SDS011;38584;49.426;8.396;2023-07-22T11:14:28;12.20;;;2.88;;
52686;SDS011;38584;49.426;8.396;2023-07-22T11:16:55;18.17;;;2.90;;
52686;SDS011;38584;49.426;8.396;2023-07-22T11:19:21;10.57;;;2.78;;
52686;SDS011;38584;49.426;8.396;2023-07-22T11:21:47;8.40;;;2.60;;
52686;SDS011;38584;49.426;8.396;2023-07-22T11:24:16;9.10;;;2.53;;
52686;SDS011;38584;49.426;8.396;2023-07-22T11:26:44;9.27;;;2.75;;
52686;SDS011;38584;49.426;8.396;2023-07-22T11:29:10;10.20;;;2.67;;
52686;SDS011;38584;49.426;8.396;2023-07-22T11:31:37;9.70;;;2.65;;
52686;SDS011;38584;49.426;8.396;2023-07-22T11:34:03;6.15;;;2.28;;
52686;SDS011;38584;49.426;8.396;2023-07-22T11:36:28;5.60;;;2.40;;
52686;SDS011;38584;49.426;8.396;2023-07-22T11:39:27;10.00;;;2.20;;
52686;SDS011;38584;49.426;8.396;2023-07-22T11:41:46;12.20;;;2.90;;
52686;SDS011;38584;49.426;8.396;2023-07-22T11:44:12;11.25;;;2.67;;
52686;SDS011;38584;49.426;8.396;2023-07-22T11:51:47;6.55;;;2.30;;
52686;SDS011;38584;49.426;8.396;2023-07-22T11:54:12;6.57;;;2.28;;
52686;SDS011;38584;49.426;8.396;2023-07-22T11:56:38;7.68;;;2.33;;
52686;SDS011;38584;49.426;8.396;2023-07-22T11:59:04;8.18;;;2.35;;
52686;SDS011;38584;49.426;8.396;2023-07-22T12:01:32;10.50;;;2.37;;
52686;SDS011;38584;49.426;8.396;2023-07-22T12:03:58;6.55;;;2.28;;
52686;SDS011;38584;49.426;8.396;2023-07-22T12:06:26;8.48;;;2.53;;
52686;SDS011;38584;49.426;8.396;2023-07-22T12:08:52;7.47;;;2.47;;
52686;SDS011;38584;49.426;8.396;2023-07-22T12:11:23;8.50;;;3.10;;
52686;SDS011;38584;49.426;8.396;2023-07-22T12:14:08;6.38;;;2.60;;
52686;SDS011;38584;49.426;8.396;2023-07-22T12:16:34;5.45;;;2.35;;
52686;SDS011;38584;49.426;8.396;2023-07-22T12:19:03;7.93;;;2.50;;
52686;SDS011;38584;49.426;8.396;2023-07-22T12:21:28;8.93;;;2.40;;
52686;SDS011;38584;49.426;8.396;2023-07-22T12:23:53;5.57;;;2.27;;
52686;SDS011;38584;49.426;8.396;2023-07-22T12:26:19;9.02;;;2.92;;
52686;SDS011;38584;49.426;8.396;2023-07-22T12:28:44;6.97;;;2.57;;
52686;SDS011;38584;49.426;8.396;2023-07-22T12:31:09;6.33;;;2.40;;
52686;SDS011;38584;49.426;8.396;2023-07-22T12:33:35;9.27;;;2.43;;
52686;SDS011;38584;49.426;8.396;2023-07-22T12:36:00;5.63;;;2.35;;
52686;SDS011;38584;49.426;8.396;2023-07-22T12:38:28;9.10;;;2.73;;
52686;SDS011;38584;49.426;8.396;2023-07-22T12:40:53;7.22;;;2.55;;
52686;SDS011;38584;49.426;8.396;2023-07-22T12:43:18;7.17;;;2.60;;
52686;SDS011;38584;49.426;8.396;2023-07-22T12:45:44;6.43;;;2.30;;
52686;SDS011;38584;49.426;8.396;2023-07-22T12:48:18;7.97;;;2.70;;
52686;SDS011;38584;49.426;8.396;2023-07-22T12:50:43;8.40;;;3.13;;
52686;SDS011;38584;49.426;8.396;2023-07-22T12:53:09;7.03;;;2.63;;
52686;SDS011;38584;49.426;8.396;2023-07-22T12:55:34;10.68;;;2.80;;
52686;SDS011;38584;49.426;8.396;2023-07-22T12:57:59;10.27;;;2.97;;
52686;SDS011;38584;49.426;8.396;2023-07-22T13:00:24;9.13;;;2.57;;
52686;SDS011;38584;49.426;8.396;2023-07-22T13:02:49;7.53;;;2.97;;
52686;SDS011;38584;49.426;8.396;2023-07-22T13:05:15;7.60;;;2.70;;
52686;SDS011;38584;49.426;8.396;2023-07-22T13:07:43;9.50;;;2.80;;
52686;SDS011;38584;49.426;8.396;2023-07-22T13:10:08;7.32;;;2.80;;
52686;SDS011;38584;49.426;8.396;2023-07-22T13:12:36;8.95;;;2.80;;
52686;SDS011;38584;49.426;8.396;2023-07-22T13:15:01;10.32;;;2.88;;
52686;SDS011;38584;49.426;8.396;2023-07-22T13:17:26;8.33;;;2.90;;
52686;SDS011;38584;49.426;8.396;2023-07-22T13:19:51;10.47;;;3.27;;
52686;SDS011;38584;49.426;8.396;2023-07-22T13:22:16;8.40;;;2.90;;
52686;SDS011;38584;49.426;8.396;2023-07-22T13:24:42;9.83;;;2.80;;
52686;SDS011;38584;49.426;8.396;2023-07-22T13:27:07;7.32;;;2.90;;
52686;SDS011;38584;49.426;8.396;2023-07-22T13:29:33;9.07;;;3.13;;
52686;SDS011;38584;49.426;8.396;2023-07-22T13:31:58;8.10;;;2.60;;
52686;SDS011;38584;49.426;8.396;2023-07-22T13:34:23;7.73;;;2.67;;
52686;SDS011;38584;49.426;8.396;2023-07-22T13:36:48;8.70;;;2.70;;
52686;SDS011;38584;49.426;8.396;2023-07-22T13:39:13;10.50;;;2.70;;
52686;SDS011;38584;49.426;8.396;2023-07-22T13:41:39;8.50;;;2.90;;
52686;SDS011;38584;49.426;8.396;2023-07-22T13:44:06;7.97;;;2.80;;
52686;SDS011;38584;49.426;8.396;2023-07-22T13:46:32;6.75;;;2.88;;
52686;SDS011;38584;49.426;8.396;2023-07-22T13:48:57;6.97;;;2.60;;
52686;SDS011;38584;49.426;8.396;2023-07-22T13:51:22;6.90;;;2.80;;
52686;SDS011;38584;49.426;8.396;2023-07-22T13:53:50;8.13;;;2.90;;
52686;SDS011;38584;49.426;8.396;2023-07-22T13:56:17;8.73;;;2.90;;
52686;SDS011;38584;49.426;8.396;2023-07-22T13:58:45;8.43;;;2.80;;
52686;SDS011;38584;49.426;8.396;2023-07-22T14:01:10;8.95;;;2.80;;
52686;SDS011;38584;49.426;8.396;2023-07-22T14:03:35;7.70;;;2.93;;
52686;SDS011;38584;49.426;8.396;2023-07-22T14:06:00;6.70;;;2.70;;
52686;SDS011;38584;49.426;8.396;2023-07-22T14:08:25;10.03;;;2.77;;
52686;SDS011;38584;49.426;8.396;2023-07-22T14:10:56;8.50;;;2.70;;
52686;SDS011;38584;49.426;8.396;2023-07-22T14:13:24;11.00;;;2.78;;
52686;SDS011;38584;49.426;8.396;2023-07-22T14:15:49;7.72;;;2.90;;
52686;SDS011;38584;49.426;8.396;2023-07-22T14:18:14;8.30;;;2.70;;
52686;SDS011;38584;49.426;8.396;2023-07-22T14:20:42;5.55;;;2.30;;
52686;SDS011;38584;49.426;8.396;2023-07-22T14:23:11;8.23;;;2.67;;
52686;SDS011;38584;49.426;8.396;2023-07-22T14:25:36;11.23;;;2.78;;
52686;SDS011;38584;49.426;8.396;2023-07-22T14:28:01;7.83;;;3.10;;
52686;SDS011;38584;49.426;8.396;2023-07-22T14:30:26;12.87;;;3.30;;
52686;SDS011;38584;49.426;8.396;2023-07-22T14:32:54;8.63;;;3.03;;
52686;SDS011;38584;49.426;8.396;2023-07-22T14:35:23;7.05;;;2.85;;
52686;SDS011;38584;49.426;8.396;2023-07-22T14:37:48;8.32;;;2.80;;
52686;SDS011;38584;49.426;8.396;2023-07-22T14:40:16;7.33;;;2.90;;
52686;SDS011;38584;49.426;8.396;2023-07-22T14:42:41;7.47;;;2.90;;
52686;SDS011;38584;49.426;8.396;2023-07-22T14:45:10;9.67;;;3.20;;
52686;SDS011;38584;49.426;8.396;2023-07-22T14:47:35;11.18;;;3.20;;